createdAt,value
2017-07-18T00:01:13.282Z,60.10
2017-07-18T00:03:40.807Z,59.60
2017-07-18T00:06:09.072Z,59.70
2017-07-18T00:08:36.629Z,59.50
2017-07-18T00:11:04.523Z,59.60
2017-07-18T00:13:32.035Z,59.50
2017-07-18T00:15:59.539Z,59.60
2017-07-18T00:18:27.068Z,59.50
2017-07-18T00:20:54.967Z,59.30
2017-07-18T00:23:22.498Z,59.40
2017-07-18T00:25:49.997Z,59.40
2017-07-18T00:28:18.633Z,59.70
2017-07-18T00:30:46.169Z,59.30
2017-07-18T00:33:13.675Z,59.70
2017-07-18T00:35:41.960Z,60.30
2017-07-18T00:38:09.866Z,59.70
2017-07-18T00:40:37.417Z,59.70
2017-07-18T00:43:04.918Z,59.90
2017-07-18T00:45:32.439Z,59.80
2017-07-18T00:48:00.295Z,59.70
2017-07-18T00:50:28.577Z,59.70
2017-07-18T00:52:56.091Z,59.80
2017-07-18T00:55:23.620Z,60.10
2017-07-18T00:57:51.163Z,60.20
2017-07-18T01:00:19.086Z,60.30
2017-07-18T01:02:46.588Z,60.50
2017-07-18T01:05:14.086Z,60.50
2017-07-18T01:07:42.378Z,60.60
2017-07-18T01:10:09.877Z,60.70
2017-07-18T01:12:37.404Z,61.00
2017-07-18T01:15:04.895Z,61.10
2017-07-18T01:17:33.179Z,62.30
2017-07-18T01:20:01.452Z,62.20
2017-07-18T01:22:29.765Z,62.20
2017-07-18T01:24:57.259Z,61.50
2017-07-18T01:27:24.763Z,61.80
2017-07-18T01:29:53.056Z,61.60
2017-07-18T01:32:20.960Z,61.50
2017-07-18T01:34:48.476Z,61.80
2017-07-18T01:37:15.975Z,62.00
2017-07-18T01:39:43.494Z,62.10
2017-07-18T01:42:10.992Z,62.10
2017-07-18T01:44:39.290Z,62.60
2017-07-18T01:47:06.812Z,62.40
2017-07-18T01:49:34.307Z,62.80
2017-07-18T01:52:03.008Z,63.10
2017-07-18T01:54:30.504Z,63.00
2017-07-18T01:56:58.029Z,62.80
2017-07-18T01:59:26.294Z,62.70
2017-07-18T02:01:53.811Z,62.70
2017-07-18T02:04:21.316Z,62.80
2017-07-18T02:06:48.835Z,62.80
2017-07-18T02:09:16.334Z,62.80
2017-07-18T02:11:43.853Z,63.10
2017-07-18T02:14:11.355Z,63.00
2017-07-18T02:16:39.625Z,63.10
2017-07-18T02:19:07.915Z,62.80
2017-07-18T02:21:35.815Z,62.70
2017-07-18T02:24:03.344Z,62.30
2017-07-18T02:26:30.843Z,62.50
2017-07-18T02:28:58.356Z,62.40
2017-07-18T02:31:26.627Z,63.10
2017-07-18T02:33:55.282Z,62.50
2017-07-18T02:36:23.546Z,62.40
2017-07-18T02:38:51.078Z,62.10
2017-07-18T02:41:18.572Z,62.20
2017-07-18T02:43:46.071Z,62.60
2017-07-18T02:46:13.584Z,62.90
2017-07-18T02:48:41.080Z,62.80
2017-07-18T02:51:08.594Z,62.80
2017-07-18T02:53:36.089Z,62.60
2017-07-18T02:56:03.612Z,62.50
2017-07-18T02:58:31.893Z,63.10
2017-07-18T03:01:00.551Z,62.30
2017-07-18T03:03:28.050Z,62.40
2017-07-18T03:05:55.575Z,62.50
2017-07-18T03:08:23.484Z,62.50
2017-07-18T03:10:51.016Z,62.50
2017-07-18T03:13:18.511Z,62.70
2017-07-18T03:15:46.776Z,62.80
2017-07-18T03:18:14.339Z,62.90
2017-07-18T03:20:43.344Z,63.10
2017-07-18T03:23:10.867Z,63.20
2017-07-18T03:25:38.366Z,63.10
2017-07-18T03:28:06.659Z,63.40
2017-07-18T03:30:35.676Z,63.30
2017-07-18T03:33:03.191Z,63.30
2017-07-18T03:35:31.083Z,63.50
2017-07-18T03:37:59.371Z,64.10
2017-07-18T03:40:26.872Z,63.60
2017-07-18T03:42:54.368Z,63.70
2017-07-18T03:45:22.651Z,63.60
2017-07-18T03:47:50.542Z,63.60
2017-07-18T03:50:18.061Z,63.50
2017-07-18T03:52:46.332Z,64.40
2017-07-18T03:55:14.622Z,63.80
2017-07-18T03:57:42.957Z,63.90
2017-07-18T04:00:10.476Z,64.00
2017-07-18T04:02:37.978Z,63.70
2017-07-18T04:05:05.888Z,63.80
2017-07-18T04:10:03.072Z,64.40
2017-07-18T04:12:30.578Z,63.90
2017-07-18T04:14:58.472Z,64.20
2017-07-18T04:17:26.384Z,63.90
2017-07-18T04:19:53.892Z,63.80
2017-07-18T04:22:21.420Z,64.10
2017-07-18T04:24:49.312Z,64.00
2017-07-18T04:27:16.832Z,64.20
2017-07-18T04:29:44.330Z,64.30
2017-07-18T04:32:11.844Z,64.00
2017-07-18T04:34:39.356Z,63.80
2017-07-18T04:37:06.885Z,63.70
2017-07-18T04:39:34.379Z,63.80
2017-07-18T04:42:01.904Z,63.80
2017-07-18T04:44:29.421Z,63.70
2017-07-18T04:46:56.924Z,63.50
2017-07-18T04:49:24.461Z,63.50
2017-07-18T04:51:52.351Z,63.30
2017-07-18T04:54:21.384Z,63.20
2017-07-18T04:56:49.654Z,63.70
2017-07-18T04:59:17.187Z,63.40
2017-07-18T05:01:47.742Z,63.00
2017-07-18T05:06:44.264Z,62.60
2017-07-18T05:09:12.166Z,62.50
2017-07-18T05:11:39.688Z,62.70
2017-07-18T05:14:07.193Z,63.20
2017-07-18T05:16:34.712Z,63.50
2017-07-18T05:19:02.992Z,63.60
2017-07-18T05:21:30.516Z,63.50
2017-07-18T05:23:58.785Z,63.60
2017-07-18T05:26:26.702Z,64.20
2017-07-18T05:28:54.218Z,64.20
2017-07-18T05:31:21.711Z,64.80
2017-07-18T05:33:49.247Z,65.20
2017-07-18T05:36:16.758Z,65.30
2017-07-18T05:38:44.287Z,65.00
2017-07-18T05:41:11.783Z,65.30
2017-07-18T05:43:39.710Z,65.10
2017-07-18T05:46:07.609Z,65.00
2017-07-18T05:48:36.614Z,64.70
2017-07-18T05:51:04.916Z,63.80
2017-07-18T05:53:32.412Z,64.20
2017-07-18T05:55:59.946Z,64.40
2017-07-18T05:58:27.444Z,64.30
2017-07-18T06:00:54.970Z,63.70
2017-07-18T06:03:22.487Z,63.70
2017-07-18T06:05:50.403Z,62.70
2017-07-18T06:08:17.912Z,62.50
2017-07-18T06:10:45.427Z,62.20
2017-07-18T06:13:13.713Z,61.30
2017-07-18T06:15:41.607Z,58.90
2017-07-18T06:18:09.132Z,57.70
2017-07-18T06:20:36.639Z,54.70
2017-07-18T06:23:04.948Z,53.00
2017-07-18T06:25:32.444Z,50.70
2017-07-18T06:27:59.959Z,49.10
2017-07-18T06:30:27.455Z,46.00
2017-07-18T06:32:54.971Z,45.20
2017-07-18T06:35:22.872Z,43.60
2017-07-18T06:37:50.402Z,41.80
2017-07-18T06:40:17.921Z,43.60
2017-07-18T06:42:45.451Z,43.20
2017-07-18T06:45:12.960Z,44.80
2017-07-18T06:47:40.471Z,43.50
2017-07-18T06:50:07.995Z,44.10
2017-07-18T06:52:35.896Z,42.40
2017-07-18T06:55:04.956Z,43.20
2017-07-18T06:57:32.451Z,43.20
2017-07-18T07:00:00.738Z,43.50
2017-07-18T07:02:28.237Z,44.50
2017-07-18T07:04:56.891Z,44.90
2017-07-18T07:07:24.391Z,45.50
2017-07-18T07:09:52.318Z,44.40
2017-07-18T07:12:19.956Z,44.50
2017-07-18T07:14:47.460Z,44.20
2017-07-18T07:17:14.975Z,44.30
2017-07-18T07:19:42.475Z,44.50
2017-07-18T07:22:09.993Z,44.30
2017-07-18T07:24:37.510Z,43.60
2017-07-18T07:27:05.028Z,42.70
2017-07-18T07:29:33.300Z,42.90
2017-07-18T07:32:02.326Z,41.50
2017-07-18T07:34:29.845Z,41.50
2017-07-18T07:36:58.884Z,40.80
2017-07-18T07:39:26.390Z,40.20
2017-07-18T07:41:54.688Z,40.10
2017-07-18T07:44:22.206Z,38.50
2017-07-18T07:46:49.698Z,37.40
2017-07-18T07:49:17.222Z,37.80
2017-07-18T07:51:45.506Z,37.50
2017-07-18T07:54:13.796Z,38.00
2017-07-18T07:56:42.058Z,36.80
2017-07-18T07:59:09.580Z,36.70
2017-07-18T08:01:37.959Z,36.00
2017-07-18T08:04:05.507Z,35.30
2017-07-18T08:06:33.010Z,34.30
2017-07-18T08:09:01.697Z,35.20
2017-07-18T08:11:29.223Z,35.40
2017-07-18T08:13:57.639Z,36.60
2017-07-18T08:16:25.162Z,36.30
2017-07-18T08:18:53.063Z,36.30
2017-07-18T08:21:20.594Z,36.00
2017-07-18T08:23:48.086Z,34.80
2017-07-18T08:26:15.612Z,34.80
2017-07-18T08:28:43.149Z,34.60
2017-07-18T08:31:11.075Z,34.40
2017-07-18T08:33:38.584Z,33.70
2017-07-18T08:36:06.495Z,33.00
2017-07-18T08:38:34.009Z,32.30
2017-07-18T08:41:02.671Z,33.00
2017-07-18T08:43:30.175Z,32.30
2017-07-18T08:45:57.723Z,31.60
2017-07-18T08:48:25.240Z,29.80
2017-07-18T08:50:53.515Z,30.30
2017-07-18T08:53:22.544Z,29.50
2017-07-18T08:55:50.447Z,29.70
2017-07-18T08:58:17.974Z,30.70
2017-07-18T09:00:45.482Z,30.70
2017-07-18T09:03:13.032Z,31.30
2017-07-18T09:05:40.535Z,30.40
2017-07-18T09:08:08.057Z,29.90
2017-07-18T09:10:35.946Z,29.70
2017-07-18T09:13:04.623Z,30.00
2017-07-18T09:15:32.907Z,29.80
2017-07-18T09:18:01.187Z,30.60
2017-07-18T09:20:28.718Z,29.90
2017-07-18T09:22:56.225Z,29.50
2017-07-18T09:25:24.145Z,29.60
2017-07-18T09:27:51.647Z,30.40
2017-07-18T09:30:19.675Z,28.30
2017-07-18T09:32:47.175Z,29.50
2017-07-18T09:35:15.477Z,29.70
2017-07-18T09:37:42.976Z,28.80
2017-07-18T09:40:10.479Z,30.00
2017-07-18T09:42:38.395Z,29.20
2017-07-18T09:45:06.698Z,29.90
2017-07-18T09:47:34.409Z,29.00
2017-07-18T09:50:03.052Z,29.20
2017-07-18T09:52:30.583Z,29.50
2017-07-18T09:54:58.090Z,29.20
2017-07-18T09:57:25.607Z,28.40
2017-07-18T09:59:53.862Z,28.70
2017-07-18T10:02:21.385Z,28.90
2017-07-18T10:04:48.891Z,27.80
2017-07-18T10:07:17.161Z,28.30
2017-07-18T10:09:44.681Z,27.70
2017-07-18T10:12:12.187Z,28.00
2017-07-18T10:14:39.720Z,26.80
2017-07-18T10:17:08.742Z,27.50
2017-07-18T10:19:36.275Z,26.30
2017-07-18T10:22:04.925Z,26.70
2017-07-18T10:24:32.858Z,26.30
2017-07-18T10:27:01.492Z,26.30
2017-07-18T10:29:28.999Z,25.20
2017-07-18T10:31:56.530Z,26.10
2017-07-18T10:34:24.042Z,25.70
2017-07-18T10:36:51.595Z,26.90
2017-07-18T10:39:19.103Z,26.70
2017-07-18T10:41:46.653Z,26.60
2017-07-18T10:44:14.929Z,26.30
2017-07-18T10:46:43.239Z,26.20
2017-07-18T10:49:10.739Z,26.70
2017-07-18T10:51:38.267Z,28.00
2017-07-18T10:54:05.767Z,28.80
2017-07-18T10:56:34.057Z,29.30
2017-07-18T10:59:02.017Z,30.30
2017-07-18T11:01:29.555Z,31.20
2017-07-18T11:03:57.839Z,32.30
2017-07-18T11:06:25.338Z,32.50
2017-07-18T11:08:52.852Z,31.00
2017-07-18T11:11:20.354Z,31.70
2017-07-18T11:13:48.692Z,33.10
2017-07-18T11:16:16.227Z,33.00
2017-07-18T11:18:43.743Z,32.30
2017-07-18T11:21:11.244Z,33.10
2017-07-18T11:23:39.535Z,32.80
2017-07-18T11:26:07.041Z,32.20
2017-07-18T11:28:34.567Z,33.00
2017-07-18T11:31:02.061Z,33.40
2017-07-18T11:33:29.573Z,33.50
2017-07-18T11:35:58.236Z,33.90
2017-07-18T11:38:25.740Z,33.80
2017-07-18T11:40:54.015Z,33.10
2017-07-18T11:43:21.911Z,34.20
2017-07-18T11:45:49.458Z,33.20
2017-07-18T11:48:18.459Z,33.10
2017-07-18T11:50:45.979Z,34.10
2017-07-18T11:53:13.478Z,34.00
2017-07-18T11:55:41.039Z,33.60
2017-07-18T11:58:08.531Z,33.70
2017-07-18T12:00:36.060Z,32.70
2017-07-18T12:03:04.331Z,33.80
2017-07-18T12:05:31.877Z,34.20
2017-07-18T12:07:59.403Z,34.80
2017-07-18T12:10:27.679Z,34.60
2017-07-18T12:12:55.967Z,34.70
2017-07-18T12:15:23.861Z,34.60
2017-07-18T12:17:51.392Z,34.20
2017-07-18T12:20:20.031Z,33.90
2017-07-18T12:22:47.942Z,33.90
2017-07-18T12:25:16.581Z,34.00
2017-07-18T12:27:44.105Z,34.40
2017-07-18T12:30:12.807Z,33.80
2017-07-18T12:32:40.331Z,33.70
2017-07-18T12:35:07.841Z,33.30
2017-07-18T12:37:36.107Z,34.20
2017-07-18T12:40:03.629Z,33.00
2017-07-18T12:42:31.127Z,33.30
2017-07-18T12:44:59.783Z,33.10
2017-07-18T12:47:27.308Z,33.20
2017-07-18T12:49:54.826Z,33.50
2017-07-18T12:52:22.319Z,33.40
2017-07-18T12:54:50.248Z,33.50
2017-07-18T12:57:18.511Z,33.60
2017-07-18T12:59:46.059Z,33.80
2017-07-18T13:02:13.577Z,33.30
2017-07-18T13:04:41.066Z,33.60
2017-07-18T13:07:08.584Z,33.50
2017-07-18T13:09:36.087Z,33.20
2017-07-18T13:12:03.619Z,33.80
2017-07-18T13:14:31.944Z,34.00
2017-07-18T13:16:59.888Z,32.70
2017-07-18T13:19:27.799Z,32.40
2017-07-18T13:21:55.322Z,33.70
2017-07-18T13:24:23.595Z,34.90
2017-07-18T13:26:51.120Z,33.60
2017-07-18T13:29:18.610Z,32.70
2017-07-18T13:31:46.920Z,32.50
2017-07-18T13:34:14.424Z,32.60
2017-07-18T13:36:41.963Z,33.00
2017-07-18T13:39:09.476Z,33.40
2017-07-18T13:41:37.370Z,33.70
2017-07-18T13:44:05.279Z,32.70
2017-07-18T13:46:33.555Z,32.60
2017-07-18T13:49:01.083Z,33.30
2017-07-18T13:51:29.723Z,33.50
2017-07-18T13:53:57.663Z,33.10
2017-07-18T13:56:25.159Z,32.80
2017-07-18T13:58:52.662Z,33.20
2017-07-18T14:01:20.954Z,33.00
2017-07-18T14:03:48.452Z,33.40
2017-07-18T14:06:16.023Z,33.50
2017-07-18T14:08:43.544Z,33.10
2017-07-18T14:11:11.067Z,33.60
2017-07-18T14:13:39.711Z,32.90
2017-07-18T14:16:07.251Z,33.10
2017-07-18T14:18:34.747Z,33.30
2017-07-18T14:21:03.407Z,32.80
2017-07-18T14:23:30.937Z,33.10
2017-07-18T14:25:58.449Z,32.70
2017-07-18T14:28:25.971Z,32.80
2017-07-18T14:30:53.486Z,32.30
2017-07-18T14:33:22.140Z,33.30
2017-07-18T14:35:49.631Z,32.90
2017-07-18T14:38:17.159Z,32.60
2017-07-18T14:43:13.507Z,32.50
2017-07-18T14:45:41.418Z,32.40
2017-07-18T14:48:08.927Z,31.70
2017-07-18T14:50:37.582Z,31.50
2017-07-18T14:53:05.511Z,31.80
2017-07-18T14:55:34.168Z,32.40
2017-07-18T14:58:01.660Z,32.00
2017-07-18T15:00:29.184Z,31.80
2017-07-18T15:02:56.687Z,31.60
2017-07-18T15:05:24.243Z,31.90
2017-07-18T15:07:51.735Z,32.20
2017-07-18T15:10:20.019Z,32.40
2017-07-18T15:12:47.543Z,32.30
2017-07-18T15:15:15.813Z,32.60
2017-07-18T15:17:44.097Z,33.10
2017-07-18T15:20:11.603Z,33.10
2017-07-18T15:22:39.523Z,33.10
2017-07-18T15:25:07.036Z,32.60
2017-07-18T15:27:35.690Z,33.00
2017-07-18T15:30:03.186Z,33.30
2017-07-18T15:32:30.719Z,34.20
2017-07-18T15:34:58.218Z,32.70
2017-07-18T15:37:26.113Z,32.00
2017-07-18T15:39:54.055Z,33.00
2017-07-18T15:42:22.695Z,33.50
2017-07-18T15:44:50.261Z,33.70
2017-07-18T15:47:18.533Z,33.90
2017-07-18T15:49:46.816Z,33.80
2017-07-18T15:52:14.329Z,34.10
2017-07-18T15:54:41.864Z,34.40
2017-07-18T15:57:09.358Z,33.70
2017-07-18T15:59:37.620Z,34.40
2017-07-18T16:02:05.202Z,34.50
2017-07-18T16:04:32.703Z,34.00
2017-07-18T16:07:00.215Z,34.20
2017-07-18T16:09:27.723Z,33.50
2017-07-18T16:11:55.261Z,33.50
2017-07-18T16:14:23.923Z,33.70
2017-07-18T16:16:52.211Z,34.80
2017-07-18T16:19:19.702Z,34.10
2017-07-18T16:21:47.626Z,34.40
2017-07-18T16:24:16.259Z,33.90
2017-07-18T16:26:43.753Z,34.30
2017-07-18T16:29:11.348Z,34.20
2017-07-18T16:31:39.606Z,34.00
2017-07-18T16:34:07.518Z,34.70
2017-07-18T16:36:36.518Z,35.50
2017-07-18T16:39:04.038Z,35.20
2017-07-18T16:41:32.300Z,35.60
2017-07-18T16:43:59.815Z,35.40
2017-07-18T16:46:27.343Z,35.50
2017-07-18T16:48:54.862Z,35.70
2017-07-18T16:51:22.371Z,35.10
2017-07-18T16:53:49.864Z,35.20
2017-07-18T16:56:17.388Z,35.30
2017-07-18T16:58:46.022Z,35.20
2017-07-18T17:01:13.551Z,35.20
2017-07-18T17:03:41.438Z,35.50
2017-07-18T17:06:08.956Z,35.50
2017-07-18T17:08:36.467Z,35.80
2017-07-18T17:11:04.003Z,36.00
2017-07-18T17:13:32.274Z,36.30
2017-07-18T17:15:59.778Z,36.40
2017-07-18T17:18:27.323Z,36.80
2017-07-18T17:20:55.597Z,36.60
2017-07-18T17:23:24.251Z,36.60
2017-07-18T17:25:51.863Z,36.80
2017-07-18T17:28:20.534Z,37.20
2017-07-18T17:33:16.915Z,37.60
2017-07-18T17:35:44.414Z,37.70
2017-07-18T17:38:12.357Z,38.00
2017-07-18T17:40:39.873Z,38.30
2017-07-18T17:43:08.734Z,38.30
2017-07-18T17:45:37.035Z,38.20
2017-07-18T17:48:05.324Z,38.30
2017-07-18T17:50:32.847Z,38.60
2017-07-18T17:53:01.883Z,38.80
2017-07-18T17:55:29.395Z,39.10
2017-07-18T17:57:57.663Z,39.80
2017-07-18T18:00:26.094Z,39.10
2017-07-18T18:02:54.432Z,39.90
2017-07-18T18:05:23.150Z,39.40
2017-07-18T18:07:52.240Z,39.60
2017-07-18T18:10:20.519Z,39.80
2017-07-18T18:12:48.055Z,39.70
2017-07-18T18:15:16.319Z,39.80
2017-07-18T18:17:43.847Z,40.20
2017-07-18T18:20:12.174Z,41.60
2017-07-18T18:22:40.522Z,41.80
2017-07-18T18:27:36.989Z,42.70
2017-07-18T18:30:05.263Z,43.10
2017-07-18T18:32:32.861Z,43.10
2017-07-18T18:35:00.759Z,43.10
2017-07-18T18:37:28.260Z,43.20
2017-07-18T18:39:55.798Z,43.30
2017-07-18T18:42:23.299Z,43.80
2017-07-18T18:44:51.592Z,43.90
2017-07-18T18:47:20.602Z,45.90
2017-07-18T18:49:48.128Z,46.00
2017-07-18T18:52:16.412Z,46.90
2017-07-18T18:54:43.939Z,46.70
2017-07-18T18:57:11.435Z,47.50
2017-07-18T18:59:38.962Z,47.40
2017-07-18T19:02:07.236Z,47.70
2017-07-18T19:04:35.152Z,47.50
2017-07-18T19:07:02.679Z,47.50
2017-07-18T19:09:30.183Z,47.30
2017-07-18T19:11:57.710Z,47.00
2017-07-18T19:14:25.213Z,46.80
2017-07-18T19:16:54.283Z,46.70
2017-07-18T19:19:21.791Z,46.60
2017-07-18T19:21:49.726Z,46.60
2017-07-18T19:24:17.998Z,47.30
2017-07-18T19:26:46.288Z,47.30
2017-07-18T19:29:14.724Z,48.30
2017-07-18T19:31:42.227Z,47.20
2017-07-18T19:34:10.510Z,47.80
2017-07-18T19:36:38.403Z,47.20
2017-07-18T19:39:06.327Z,47.20
2017-07-18T19:41:33.838Z,47.10
2017-07-18T19:44:01.772Z,47.00
2017-07-18T19:46:29.272Z,46.80
2017-07-18T19:48:57.191Z,46.90
2017-07-18T19:51:24.694Z,46.90
2017-07-18T19:53:52.991Z,47.00
2017-07-18T19:56:21.661Z,47.40
2017-07-18T19:58:49.164Z,47.70
2017-07-18T20:01:16.691Z,47.80
2017-07-18T20:03:44.583Z,48.20
2017-07-18T20:06:12.120Z,48.40
2017-07-18T20:08:40.392Z,48.70
2017-07-18T20:11:09.043Z,48.80
2017-07-18T20:13:36.539Z,48.80
2017-07-18T20:16:04.469Z,48.90
2017-07-18T20:18:31.973Z,49.30
2017-07-18T20:20:59.915Z,51.20
2017-07-18T20:23:27.822Z,52.00
2017-07-18T20:25:55.773Z,52.60
2017-07-18T20:28:23.301Z,53.80
2017-07-18T20:30:50.808Z,53.60
2017-07-18T20:33:18.322Z,54.30
2017-07-18T20:35:46.951Z,55.10
2017-07-18T20:38:14.610Z,55.60
2017-07-18T20:40:42.105Z,55.90
2017-07-18T20:43:09.631Z,56.10
2017-07-18T20:45:38.294Z,56.30
2017-07-18T20:48:06.576Z,56.60
2017-07-18T20:50:35.582Z,56.60
2017-07-18T20:53:03.090Z,57.30
2017-07-18T20:55:31.370Z,57.20
2017-07-18T20:57:58.875Z,57.50
2017-07-18T21:00:27.540Z,57.40
2017-07-18T21:02:55.123Z,57.50
2017-07-18T21:05:23.797Z,57.20
2017-07-18T21:07:51.299Z,57.30
2017-07-18T21:10:18.826Z,57.30
2017-07-18T21:12:46.359Z,57.10
2017-07-18T21:15:13.879Z,57.10
2017-07-18T21:17:41.392Z,57.00
2017-07-18T21:20:08.940Z,56.80
2017-07-18T21:22:36.833Z,57.00
2017-07-18T21:25:04.330Z,56.80
2017-07-18T21:27:31.849Z,57.00
2017-07-18T21:29:59.347Z,57.00
2017-07-18T21:32:27.643Z,57.50
2017-07-18T21:34:55.309Z,57.20
2017-07-18T21:37:22.835Z,56.40
2017-07-18T21:39:51.094Z,56.70
2017-07-18T21:42:18.612Z,56.90
2017-07-18T21:44:46.872Z,57.40
2017-07-18T21:47:14.376Z,57.10
2017-07-18T21:49:41.888Z,56.70
2017-07-18T21:52:09.392Z,56.40
2017-07-18T21:54:36.911Z,56.40
2017-07-18T21:57:04.413Z,56.90
2017-07-18T21:59:31.929Z,57.10
2017-07-18T22:01:59.423Z,56.30
2017-07-18T22:04:27.696Z,55.60
2017-07-18T22:06:55.306Z,55.00
2017-07-18T22:09:22.812Z,55.10
2017-07-18T22:11:51.467Z,55.50
2017-07-18T22:14:18.976Z,55.50
2017-07-18T22:16:46.495Z,55.50
2017-07-18T22:19:13.991Z,56.60
2017-07-18T22:21:41.523Z,56.60
2017-07-18T22:24:10.159Z,56.80
2017-07-18T22:26:38.061Z,56.80
2017-07-18T22:29:06.715Z,56.80
2017-07-18T22:31:34.998Z,56.90
2017-07-18T22:34:02.516Z,56.90
2017-07-18T22:36:30.015Z,56.80
2017-07-18T22:38:57.543Z,56.90
2017-07-18T22:41:25.059Z,56.80
2017-07-18T22:43:53.342Z,56.40
2017-07-18T22:46:20.837Z,56.50
2017-07-18T22:48:48.354Z,56.60
2017-07-18T22:51:16.301Z,56.90
2017-07-18T22:53:44.571Z,57.30
2017-07-18T22:56:12.869Z,57.40
2017-07-18T22:58:40.383Z,56.90
2017-07-18T23:01:07.907Z,56.90
2017-07-18T23:03:35.420Z,57.10
2017-07-18T23:06:02.989Z,57.30
2017-07-18T23:08:30.483Z,57.60
2017-07-18T23:10:58.775Z,57.60
2017-07-18T23:13:26.274Z,57.70
2017-07-18T23:15:53.792Z,57.70
2017-07-18T23:18:21.294Z,57.50
2017-07-18T23:20:48.792Z,57.30
2017-07-18T23:23:17.479Z,56.60
2017-07-18T23:25:44.992Z,55.90
2017-07-18T23:28:12.514Z,55.80
2017-07-18T23:30:40.015Z,55.80
2017-07-18T23:33:08.292Z,55.70
2017-07-18T23:35:35.835Z,55.30
2017-07-18T23:38:04.119Z,55.30
2017-07-18T23:40:31.614Z,55.30
2017-07-18T23:42:59.146Z,55.00
2017-07-18T23:45:26.638Z,54.90
2017-07-18T23:47:54.908Z,54.80
2017-07-18T23:50:23.568Z,54.80
2017-07-18T23:52:51.843Z,54.50
2017-07-18T23:55:19.359Z,54.00
2017-07-18T23:57:46.851Z,53.90
